Time;durP1;ratioP1;P1;durP2;ratioP2;P2;SDS_P1;SDS_P2;PMS_P1;PMS_P2;Temp;Humidity;BMP_temperature;BMP_pressure;BME280_temperature;BME280_humidity;BME280_pressure;Samples;Min_cycle;Max_cycle;Signal;HPM_P1;HPM_P2
2022/07/28 00:01:33;;;;;;;3.78;1.58;;;13.30;99.90;;;;;;5093407;28;20118;-67
2022/07/28 00:03:59;;;;;;;2.58;1.13;;;13.30;99.90;;;;;;5094150;28;20047;-67
2022/07/28 00:06:25;;;;;;;3.38;1.23;;;13.40;99.90;;;;;;5094143;28;20093;-67
2022/07/28 00:08:51;;;;;;;1.98;1.27;;;13.40;99.90;;;;;;5092790;28;20047;-67
2022/07/28 00:11:17;;;;;;;4.78;1.50;;;13.40;99.90;;;;;;5093734;28;20137;-67
2022/07/28 00:13:42;;;;;;;2.42;1.30;;;13.40;99.90;;;;;;5093928;28;20034;-67
2022/07/28 00:16:08;;;;;;;2.72;2.00;;;13.30;99.90;;;;;;5094388;28;20165;-67
2022/07/28 00:18:33;;;;;;;7.32;1.85;;;13.30;99.90;;;;;;5093860;28;20398;-67
2022/07/28 00:21:00;;;;;;;3.78;1.63;;;13.30;99.90;;;;;;5092596;28;20497;-66
2022/07/28 00:23:25;;;;;;;5.43;1.30;;;13.40;99.90;;;;;;5092833;28;20043;-66
2022/07/28 00:25:51;;;;;;;2.58;1.33;;;13.40;99.90;;;;;;5093866;28;20044;-66
2022/07/28 00:28:17;;;;;;;3.75;1.35;;;13.30;99.90;;;;;;5093694;28;20123;-66
2022/07/28 00:30:42;;;;;;;4.57;1.40;;;13.30;99.90;;;;;;5093317;28;20071;-66
2022/07/28 00:33:08;;;;;;;2.88;1.67;;;13.30;99.90;;;;;;5093640;28;20132;-66
2022/07/28 00:35:33;;;;;;;1.48;1.02;;;13.30;99.90;;;;;;5088523;28;20495;-66
2022/07/28 00:37:59;;;;;;;4.18;1.45;;;13.20;99.90;;;;;;5089824;28;20123;-66
2022/07/28 00:41:09;;;;;;;5.05;1.25;;;13.20;99.90;;;;;;5083573;28;20028;-66
2022/07/28 00:43:10;;;;;;;2.22;1.10;;;13.10;99.90;;;;;;5093362;28;20044;-66
2022/07/28 00:45:36;;;;;;;1.77;1.15;;;13.10;99.90;;;;;;5093465;28;20047;-66
2022/07/28 00:48:02;;;;;;;5.80;1.42;;;13.10;99.90;;;;;;5093040;28;20128;-67
2022/07/28 00:50:28;;;;;;;3.97;1.50;;;13.10;99.90;;;;;;5093256;28;20530;-67
2022/07/28 00:52:54;;;;;;;3.20;1.20;;;13.10;99.90;;;;;;5092111;28;20040;-67
2022/07/28 00:55:22;;;;;;;4.32;1.88;;;13.10;99.90;;;;;;5093141;28;20034;-67
2022/07/28 00:57:47;;;;;;;3.63;1.65;;;13.00;99.90;;;;;;5093193;28;20036;-67
2022/07/28 01:00:13;;;;;;;4.55;1.75;;;13.00;99.90;;;;;;5092789;28;20036;-67
2022/07/28 01:02:39;;;;;;;4.55;1.55;;;13.00;99.90;;;;;;5093017;28;20054;-67
2022/07/28 01:05:05;;;;;;;5.65;1.48;;;13.00;99.90;;;;;;5093192;28;20036;-67
2022/07/28 01:07:36;;;;;;;4.03;1.63;;;13.00;99.90;;;;;;5092808;28;20036;-67
2022/07/28 01:10:12;;;;;;;4.47;1.50;;;12.90;99.90;;;;;;5090479;28;20096;-67
2022/07/28 01:12:49;;;;;;;3.95;1.60;;;12.90;99.90;;;;;;5087848;28;20047;-67
2022/07/28 01:15:26;;;;;;;3.45;1.73;;;12.90;99.90;;;;;;5093020;28;20113;-67
2022/07/28 01:18:08;;;;;;;3.15;1.50;;;13.00;99.90;;;;;;5092898;28;20168;-67
2022/07/28 01:21:07;;;;;;;2.85;1.73;;;12.90;99.90;;;;;;5092521;28;20040;-67
2022/07/28 01:23:33;;;;;;;2.15;1.48;;;12.90;99.90;;;;;;5092534;28;20084;-67
2022/07/28 01:26:25;;;;;;;5.05;1.80;;;12.90;99.90;;;;;;5092768;28;20040;-67
2022/07/28 01:29:00;;;;;;;2.88;1.30;;;12.90;99.90;;;;;;5092499;28;20032;-68
2022/07/28 01:31:35;;;;;;;4.25;1.85;;;12.90;99.90;;;;;;5092206;28;20042;-67
2022/07/28 01:34:06;;;;;;;4.35;1.30;;;12.90;99.90;;;;;;5092746;28;20119;-67
2022/07/28 01:36:42;;;;;;;2.35;1.65;;;12.90;99.90;;;;;;5092623;28;20040;-67
2022/07/28 01:39:08;;;;;;;4.35;1.92;;;12.80;99.90;;;;;;5092289;28;20065;-67
2022/07/28 01:41:36;;;;;;;4.72;1.77;;;12.90;99.90;;;;;;5092106;28;20486;-67
2022/07/28 01:44:07;;;;;;;4.13;1.73;;;12.80;99.90;;;;;;5092176;28;20466;-67
2022/07/28 01:46:34;;;;;;;3.42;1.63;;;12.90;99.90;;;;;;5092242;28;20577;-67
2022/07/28 01:49:01;;;;;;;2.50;1.40;;;12.90;99.90;;;;;;5092154;28;20055;-67
2022/07/28 01:51:29;;;;;;;2.30;1.40;;;13.00;99.90;;;;;;5090280;28;20055;-67
2022/07/28 01:53:57;;;;;;;4.15;1.50;;;12.90;99.90;;;;;;5092199;28;20051;-67
2022/07/28 01:56:24;;;;;;;4.93;1.77;;;12.90;99.90;;;;;;5092064;28;20406;-67
2022/07/28 01:58:51;;;;;;;4.88;1.40;;;12.90;99.90;;;;;;5091927;28;20036;-67
2022/07/28 02:01:18;;;;;;;4.10;1.55;;;12.90;99.90;;;;;;5091993;28;20040;-66
2022/07/28 02:03:45;;;;;;;3.30;1.42;;;12.90;99.90;;;;;;5092003;28;20090;-67
2022/07/28 02:06:14;;;;;;;2.65;1.58;;;12.90;99.90;;;;;;5083612;28;20093;-67
2022/07/28 02:08:41;;;;;;;2.75;1.63;;;12.90;99.90;;;;;;5091750;28;20067;-66
2022/07/28 02:13:54;;;;;;;4.10;1.73;;;12.80;99.90;;;;;;5092067;28;20039;-66
2022/07/28 02:16:22;;;;;;;3.67;1.83;;;12.90;99.90;;;;;;5092026;28;20086;-66
2022/07/28 02:18:50;;;;;;;2.17;1.30;;;12.90;99.90;;;;;;5091947;28;20101;-66
2022/07/28 02:21:18;;;;;;;2.03;1.50;;;12.80;99.90;;;;;;5091540;28;20119;-66
2022/07/28 02:23:46;;;;;;;2.65;1.48;;;12.80;99.90;;;;;;5091793;28;20036;-67
2022/07/28 02:26:15;;;;;;;2.42;1.52;;;12.70;99.90;;;;;;5091684;28;20439;-66
2022/07/28 02:28:42;;;;;;;2.97;1.80;;;12.50;99.90;;;;;;5091917;28;20093;-66
2022/07/28 02:31:28;;;;;;;2.60;1.65;;;12.50;99.90;;;;;;5091409;28;20044;-66
2022/07/28 02:33:58;;;;;;;2.95;1.50;;;12.50;99.90;;;;;;5091579;28;20036;-67
2022/07/28 02:36:49;;;;;;;2.50;1.83;;;12.40;99.90;;;;;;5091621;28;20505;-66
2022/07/28 02:39:20;;;;;;;2.50;1.67;;;12.30;99.90;;;;;;5091532;28;20051;-66
2022/07/28 02:41:59;;;;;;;1.77;1.27;;;12.20;99.90;;;;;;5091702;28;20044;-66
2022/07/28 02:44:30;;;;;;;2.40;1.30;;;12.20;99.90;;;;;;5091666;28;20127;-66
2022/07/28 02:46:57;;;;;;;1.30;0.90;;;12.30;99.90;;;;;;5091586;28;20490;-66
2022/07/28 02:49:34;;;;;;;1.50;1.20;;;12.20;99.90;;;;;;5091121;28;20051;-66
2022/07/28 02:52:02;;;;;;;2.15;1.20;;;12.20;99.90;;;;;;5091563;28;20043;-66
2022/07/28 02:54:29;;;;;;;5.15;1.38;;;12.20;99.90;;;;;;5090484;28;20047;-66
2022/07/28 02:56:57;;;;;;;2.33;1.30;;;12.20;99.90;;;;;;5091452;28;20040;-66
2022/07/28 02:59:24;;;;;;;2.15;1.38;;;12.10;99.90;;;;;;5091327;28;20048;-67
2022/07/28 03:01:51;;;;;;;1.90;1.23;;;12.20;99.90;;;;;;5090165;28;20051;-66
2022/07/28 03:04:55;;;;;;;1.10;0.80;;;12.20;99.90;;;;;;5093155;28;20051;-66
2022/07/28 03:07:04;;;;;;;1.05;0.77;;;12.10;99.90;;;;;;5095135;28;20444;-66
2022/07/28 03:09:36;;;;;;;1.33;1.00;;;11.90;99.90;;;;;;5094778;28;20083;-66
2022/07/28 03:12:02;;;;;;;1.90;1.48;;;11.90;99.90;;;;;;5095478;28;20127;-66
2022/07/28 03:14:28;;;;;;;1.90;1.30;;;11.90;99.90;;;;;;5095323;28;20067;-66
2022/07/28 03:16:53;;;;;;;1.92;1.52;;;11.90;99.90;;;;;;5094156;28;20068;-66
2022/07/28 03:19:19;;;;;;;1.73;1.50;;;12.00;99.90;;;;;;5093398;28;20036;-66
2022/07/28 03:21:48;;;;;;;3.28;1.92;;;12.00;99.90;;;;;;5095043;28;20036;-66
2022/07/28 03:24:15;;;;;;;1.90;1.70;;;12.10;99.90;;;;;;5094980;28;20071;-66
2022/07/28 03:26:48;;;;;;;2.13;1.70;;;12.00;99.90;;;;;;5095065;28;20119;-66
2022/07/28 03:29:16;;;;;;;2.33;1.50;;;12.00;99.90;;;;;;5094762;28;20043;-66
2022/07/28 03:31:46;;;;;;;3.38;1.80;;;12.00;99.90;;;;;;5094893;28;20044;-66
2022/07/28 03:34:13;;;;;;;2.47;2.10;;;12.10;99.90;;;;;;5094932;28;20393;-67
2022/07/28 03:36:42;;;;;;;2.92;2.00;;;12.10;99.90;;;;;;5093302;28;20046;-67
2022/07/28 03:39:10;;;;;;;4.82;1.95;;;12.20;99.90;;;;;;5094836;28;20050;-67
2022/07/28 03:41:38;;;;;;;3.35;2.28;;;12.20;99.90;;;;;;5094715;28;20048;-67
2022/07/28 03:44:04;;;;;;;3.90;2.15;;;12.10;99.90;;;;;;5094985;28;20418;-67
2022/07/28 03:46:31;;;;;;;2.58;1.90;;;12.20;99.90;;;;;;5094613;28;20118;-67
2022/07/28 03:48:56;;;;;;;2.28;1.65;;;12.10;99.90;;;;;;5094296;28;20119;-67
2022/07/28 03:51:24;;;;;;;3.03;2.10;;;12.10;99.90;;;;;;5093965;28;20134;-67
2022/07/28 03:53:50;;;;;;;2.97;2.28;;;12.10;99.90;;;;;;5094380;28;20420;-67
2022/07/28 03:56:15;;;;;;;3.75;2.28;;;12.10;99.90;;;;;;5094419;28;20119;-67
2022/07/28 03:58:41;;;;;;;3.10;1.85;;;12.20;99.90;;;;;;5094349;28;20036;-67
2022/07/28 04:01:06;;;;;;;3.50;2.50;;;12.20;99.90;;;;;;5094029;28;20123;-67
2022/07/28 04:03:32;;;;;;;3.97;2.17;;;12.20;99.90;;;;;;5094182;28;20093;-67
2022/07/28 04:05:58;;;;;;;4.25;2.30;;;12.30;99.90;;;;;;5092998;28;20091;-66
2022/07/28 04:08:24;;;;;;;3.05;2.10;;;12.40;99.90;;;;;;5094198;28;20116;-67
2022/07/28 04:10:49;;;;;;;4.25;2.25;;;12.40;99.90;;;;;;5093875;28;20413;-67
2022/07/28 04:13:15;;;;;;;4.50;2.50;;;12.40;99.90;;;;;;5092705;28;20051;-67
2022/07/28 04:15:41;;;;;;;2.63;2.08;;;12.40;99.90;;;;;;5093750;28;20081;-67
2022/07/28 04:18:06;;;;;;;4.13;2.28;;;12.40;99.90;;;;;;5093794;28;20028;-67
2022/07/28 04:20:32;;;;;;;6.10;2.47;;;12.40;99.90;;;;;;5093388;28;20493;-67
2022/07/28 04:22:58;;;;;;;3.63;2.40;;;12.40;99.90;;;;;;5093960;28;20092;-67
2022/07/28 04:25:26;;;;;;;2.40;2.03;;;12.50;99.90;;;;;;5093933;28;20501;-67
2022/07/28 04:27:53;;;;;;;3.05;2.20;;;12.50;99.90;;;;;;5092614;28;20047;-67
2022/07/28 04:30:23;;;;;;;4.22;2.20;;;12.40;99.90;;;;;;5093404;28;20048;-67
2022/07/28 04:32:50;;;;;;;2.85;2.30;;;12.40;99.90;;;;;;5093411;28;20606;-67
2022/07/28 04:35:17;;;;;;;3.72;2.25;;;12.30;99.90;;;;;;5093780;28;20113;-67
2022/07/28 04:37:43;;;;;;;3.00;2.20;;;12.40;99.90;;;;;;5093667;28;20046;-67
2022/07/28 04:40:11;;;;;;;2.85;2.17;;;12.40;99.90;;;;;;5093362;28;20106;-67
2022/07/28 04:42:37;;;;;;;2.80;2.45;;;12.50;99.90;;;;;;5093567;28;20044;-67
2022/07/28 04:45:07;;;;;;;3.08;1.90;;;12.40;99.90;;;;;;5093451;28;20040;-67
2022/07/28 04:47:34;;;;;;;3.88;2.08;;;12.40;99.90;;;;;;5093046;28;20036;-67
2022/07/28 04:50:00;;;;;;;5.57;2.10;;;12.50;99.90;;;;;;5093305;28;20410;-67
2022/07/28 04:52:25;;;;;;;3.97;2.47;;;12.60;99.90;;;;;;5093298;28;20118;-67
2022/07/28 04:54:52;;;;;;;2.42;1.83;;;12.60;99.90;;;;;;5093337;28;20112;-67
2022/07/28 04:57:17;;;;;;;5.35;2.33;;;12.70;99.90;;;;;;5092025;28;20397;-67
2022/07/28 04:59:44;;;;;;;3.20;2.60;;;12.70;99.90;;;;;;5092731;28;20037;-67
2022/07/28 05:02:11;;;;;;;5.07;2.55;;;12.80;99.90;;;;;;5093014;28;20039;-67
2022/07/28 05:04:37;;;;;;;3.55;2.53;;;12.80;99.90;;;;;;5092969;28;20490;-67
2022/07/28 05:07:02;;;;;;;3.22;2.55;;;12.80;99.90;;;;;;5093238;28;20462;-67
2022/07/28 05:09:28;;;;;;;6.32;2.55;;;12.70;99.90;;;;;;5092687;28;20044;-67
2022/07/28 05:11:53;;;;;;;4.35;2.50;;;12.70;99.90;;;;;;5092968;28;20563;-67
2022/07/28 05:14:19;;;;;;;3.33;2.17;;;12.70;99.90;;;;;;5092827;28;20111;-67
2022/07/28 05:16:44;;;;;;;4.43;2.42;;;12.80;99.90;;;;;;5092750;28;20036;-67
2022/07/28 05:19:10;;;;;;;3.75;2.38;;;12.80;99.90;;;;;;5091190;28;20044;-67
2022/07/28 05:21:36;;;;;;;6.53;2.78;;;12.90;99.90;;;;;;5074359;28;20044;-67
2022/07/28 05:24:01;;;;;;;3.38;2.33;;;12.90;99.90;;;;;;5092646;28;20040;-67
2022/07/28 05:26:29;;;;;;;2.50;2.10;;;13.00;99.90;;;;;;5092128;28;20036;-67
2022/07/28 05:28:55;;;;;;;3.05;2.17;;;13.00;99.90;;;;;;5092447;28;20042;-67
2022/07/28 05:31:21;;;;;;;3.75;2.45;;;13.10;99.90;;;;;;5092207;28;20036;-67
2022/07/28 05:33:47;;;;;;;3.30;2.50;;;13.10;99.90;;;;;;5092698;28;20031;-67
2022/07/28 05:36:12;;;;;;;6.95;2.47;;;13.20;99.90;;;;;;5092553;28;20036;-67
2022/07/28 05:38:38;;;;;;;5.53;2.42;;;13.20;99.90;;;;;;5092353;28;20071;-67
2022/07/28 05:41:05;;;;;;;3.05;2.20;;;13.20;99.90;;;;;;5092157;28;20090;-66
2022/07/28 05:43:31;;;;;;;3.83;2.13;;;13.30;99.90;;;;;;5092368;28;20047;-66
2022/07/28 05:45:56;;;;;;;6.47;2.75;;;13.40;99.90;;;;;;5092221;28;20032;-67
2022/07/28 05:48:22;;;;;;;5.40;2.28;;;13.40;99.90;;;;;;5119741;22;20035;-68
2022/07/28 05:50:49;;;;;;;4.00;2.10;;;13.50;99.90;;;;;;5111496;28;20037;-69
2022/07/28 05:53:15;;;;;;;4.72;2.10;;;13.60;99.90;;;;;;5112457;28;20031;-69
2022/07/28 05:55:40;;;;;;;6.45;3.80;;;13.60;99.90;;;;;;5112363;28;20401;-69
2022/07/28 05:58:06;;;;;;;4.05;3.10;;;13.50;99.90;;;;;;5112210;28;20542;-69
2022/07/28 06:00:32;;;;;;;4.60;2.95;;;13.70;99.90;;;;;;5110753;28;20443;-69
2022/07/28 06:03:01;;;;;;;3.25;2.25;;;13.80;99.90;;;;;;5112419;28;20050;-69
2022/07/28 06:05:28;;;;;;;5.22;2.25;;;13.80;99.90;;;;;;5112361;28;20039;-69
2022/07/28 06:07:54;;;;;;;4.00;2.10;;;13.90;99.90;;;;;;5112205;28;20043;-69
2022/07/28 06:10:22;;;;;;;3.05;2.22;;;14.00;99.90;;;;;;5111873;28;20236;-69
2022/07/28 06:12:50;;;;;;;4.95;2.40;;;14.00;99.90;;;;;;5111983;28;20523;-69
2022/07/28 06:15:17;;;;;;;3.65;2.53;;;14.00;99.90;;;;;;5112359;28;20039;-69
2022/07/28 06:17:42;;;;;;;4.18;2.80;;;14.00;99.90;;;;;;5112209;28;20052;-69
2022/07/28 06:20:09;;;;;;;5.38;2.83;;;14.10;99.90;;;;;;5111959;28;20115;-69
2022/07/28 06:22:46;;;;;;;3.95;2.47;;;14.20;99.90;;;;;;5112184;28;20066;-69
2022/07/28 06:25:21;;;;;;;4.25;2.53;;;14.10;99.90;;;;;;5112019;28;20521;-69
2022/07/28 06:27:52;;;;;;;4.68;3.00;;;14.20;99.90;;;;;;5112170;28;20043;-69
2022/07/28 06:30:19;;;;;;;4.70;2.83;;;14.40;99.90;;;;;;5111921;28;20390;-69
2022/07/28 06:32:45;;;;;;;5.07;2.47;;;14.40;99.90;;;;;;5112053;28;20039;-69
2022/07/28 06:35:15;;;;;;;4.60;2.28;;;14.40;99.90;;;;;;5111999;28;20446;-69
2022/07/28 06:37:41;;;;;;;3.40;2.55;;;14.40;99.90;;;;;;5111960;28;20036;-69
2022/07/28 06:40:08;;;;;;;3.90;2.90;;;14.50;99.90;;;;;;5114773;28;20074;-69
2022/07/28 06:42:33;;;;;;;7.43;3.03;;;14.50;99.90;;;;;;5116245;28;20043;-69
2022/07/28 06:44:59;;;;;;;4.30;2.92;;;14.60;99.90;;;;;;5116177;28;20043;-68
2022/07/28 06:47:25;;;;;;;3.25;2.60;;;14.60;99.90;;;;;;5116083;28;20043;-69
2022/07/28 06:49:50;;;;;;;5.38;2.22;;;14.60;99.90;;;;;;5115553;28;20375;-69
2022/07/28 06:52:20;;;;;;;4.82;2.80;;;14.60;99.90;;;;;;5115796;28;20075;-68
2022/07/28 06:54:49;;;;;;;4.38;2.58;;;14.70;99.90;;;;;;5115924;28;20433;-68
2022/07/28 06:57:15;;;;;;;6.32;2.38;;;14.70;99.90;;;;;;5116006;28;20439;-69
2022/07/28 06:59:40;;;;;;;4.68;2.53;;;14.90;99.90;;;;;;5115472;28;20067;-68
2022/07/28 07:02:06;;;;;;;4.78;1.77;;;14.80;99.90;;;;;;5115743;28;20031;-68
2022/07/28 07:04:32;;;;;;;3.22;2.08;;;14.80;99.90;;;;;;5115817;28;20543;-68
2022/07/28 07:06:58;;;;;;;7.25;1.80;;;15.00;99.90;;;;;;5115740;28;20466;-67
2022/07/28 07:09:23;;;;;;;3.08;1.38;;;15.00;99.90;;;;;;5115393;28;20122;-68
2022/07/28 07:11:49;;;;;;;5.50;1.88;;;14.90;99.90;;;;;;5115420;28;20043;-69
2022/07/28 07:14:15;;;;;;;3.10;1.38;;;15.00;99.90;;;;;;5115713;28;20104;-68
2022/07/28 07:16:40;;;;;;;3.35;1.60;;;15.00;99.90;;;;;;5115612;28;20032;-68
2022/07/28 07:19:06;;;;;;;3.70;1.80;;;15.00;99.90;;;;;;5115218;28;20043;-68
2022/07/28 07:21:31;;;;;;;4.78;2.03;;;15.00;99.90;;;;;;5115079;28;20048;-68
2022/07/28 07:23:57;;;;;;;3.95;1.50;;;15.00;99.90;;;;;;5115472;28;20558;-68
2022/07/28 07:26:23;;;;;;;9.13;3.97;;;15.10;99.90;;;;;;5115458;28;20067;-68
2022/07/28 07:28:49;;;;;;;6.40;3.95;;;15.00;99.90;;;;;;5115078;28;20036;-68
2022/07/28 07:31:15;;;;;;;5.80;3.80;;;14.90;99.90;;;;;;5115050;28;20088;-69
2022/07/28 07:33:40;;;;;;;9.10;4.85;;;14.90;99.90;;;;;;5113946;28;20035;-69
2022/07/28 07:36:06;;;;;;;10.30;4.85;;;14.80;99.90;;;;;;5115025;28;20043;-69
2022/07/28 07:38:32;;;;;;;12.75;5.30;;;14.90;99.90;;;;;;5114901;28;20036;-69
2022/07/28 07:40:57;;;;;;;14.98;4.72;;;14.90;99.90;;;;;;5114870;28;20634;-69
2022/07/28 07:43:23;;;;;;;9.13;4.63;;;14.80;99.90;;;;;;5114863;28;20115;-69
2022/07/28 07:45:49;;;;;;;4.20;2.28;;;14.90;99.90;;;;;;5114663;28;20110;-67
2022/07/28 07:48:14;;;;;;;3.72;2.03;;;14.90;99.90;;;;;;5114226;28;20032;-67
2022/07/28 07:50:40;;;;;;;3.22;1.70;;;14.90;99.90;;;;;;5102093;28;20064;-67
2022/07/28 07:53:05;;;;;;;3.63;1.55;;;14.90;99.90;;;;;;5100635;28;20040;-68
2022/07/28 07:55:31;;;;;;;3.22;1.45;;;15.00;99.90;;;;;;5102167;28;20032;-68
2022/07/28 07:57:57;;;;;;;3.70;1.80;;;15.00;99.90;;;;;;5102840;28;20448;-68
2022/07/28 08:00:23;;;;;;;6.03;1.40;;;15.00;99.90;;;;;;5102810;28;20034;-68
2022/07/28 08:02:48;;;;;;;3.15;1.23;;;15.00;99.90;;;;;;5104202;28;20168;-68
2022/07/28 08:05:16;;;;;;;2.60;1.88;;;15.20;99.90;;;;;;5102623;28;20465;-70
2022/07/28 08:07:42;;;;;;;6.43;2.40;;;15.30;99.90;;;;;;5103380;28;20050;-69
2022/07/28 08:10:07;;;;;;;5.20;2.33;;;15.30;99.90;;;;;;5103820;28;20115;-69
2022/07/28 08:12:33;;;;;;;6.13;2.83;;;15.40;99.90;;;;;;5103796;28;20467;-69
2022/07/28 08:14:59;;;;;;;10.93;3.03;;;15.50;99.90;;;;;;5112796;28;20100;-71
2022/07/28 08:17:25;;;;;;;7.38;2.45;;;15.60;99.90;;;;;;5114204;28;20044;-69
2022/07/28 08:19:50;;;;;;;4.50;2.05;;;15.70;99.90;;;;;;5113931;28;20047;-69
2022/07/28 08:22:16;;;;;;;2.88;1.13;;;15.80;99.90;;;;;;5114069;28;20061;-69
2022/07/28 08:24:41;;;;;;;3.72;1.70;;;15.80;99.90;;;;;;5114303;28;20043;-69
2022/07/28 08:27:08;;;;;;;2.28;1.10;;;15.90;99.90;;;;;;5114163;28;20038;-69
2022/07/28 08:29:33;;;;;;;3.13;1.23;;;16.00;99.90;;;;;;5113747;28;20096;-69
2022/07/28 08:32:02;;;;;;;4.18;1.30;;;16.10;99.90;;;;;;5113888;28;20039;-69
2022/07/28 08:34:29;;;;;;;5.25;1.27;;;16.20;99.90;;;;;;5113888;28;20124;-69
2022/07/28 08:36:54;;;;;;;3.63;1.42;;;16.30;99.90;;;;;;5114122;27;20046;-69
2022/07/28 08:39:20;;;;;;;5.20;1.30;;;16.40;99.90;;;;;;5113488;28;20036;-68
2022/07/28 08:41:54;;;;;;;2.50;1.00;;;16.50;99.90;;;;;;5113864;28;20031;-68
2022/07/28 08:44:37;;;;;;;1.83;0.95;;;16.60;99.90;;;;;;5113802;28;20114;-67
2022/07/28 08:47:06;;;;;;;2.90;1.27;;;16.60;99.90;;;;;;5113593;28;20070;-68
2022/07/28 08:49:36;;;;;;;2.63;0.60;;;16.70;99.90;;;;;;5113202;28;20497;-68
2022/07/28 08:52:02;;;;;;;3.42;0.93;;;16.70;99.90;;;;;;5113418;27;20511;-68
2022/07/28 08:54:28;;;;;;;6.78;1.13;;;16.70;99.80;;;;;;5113592;28;20118;-68
2022/07/28 08:56:56;;;;;;;1.98;0.88;;;16.70;99.10;;;;;;5113452;28;20119;-68
2022/07/28 08:59:22;;;;;;;5.05;1.08;;;16.70;98.60;;;;;;5113017;28;20035;-68
2022/07/28 09:01:48;;;;;;;5.45;1.13;;;16.80;98.40;;;;;;5112525;28;20115;-68
2022/07/28 09:04:14;;;;;;;2.10;0.90;;;16.80;98.00;;;;;;5113081;28;20445;-68
2022/07/28 09:06:41;;;;;;;3.30;0.80;;;16.80;97.80;;;;;;5113167;28;20401;-68
2022/07/28 09:09:08;;;;;;;2.08;0.75;;;16.90;97.70;;;;;;5112763;28;20038;-68
2022/07/28 09:11:36;;;;;;;2.33;0.70;;;16.90;97.40;;;;;;5112986;28;20108;-68
2022/07/28 09:14:01;;;;;;;3.08;1.10;;;17.00;96.90;;;;;;5112964;27;20481;-68
2022/07/28 09:16:27;;;;;;;4.53;1.10;;;17.10;96.30;;;;;;5113095;28;20040;-68
2022/07/28 09:18:52;;;;;;;1.75;0.80;;;17.20;96.40;;;;;;5113060;28;20042;-68
2022/07/28 09:21:18;;;;;;;6.15;1.15;;;17.30;95.70;;;;;;5113096;28;20036;-68
2022/07/28 09:23:46;;;;;;;3.78;0.68;;;17.40;95.30;;;;;;5111604;28;20120;-68
2022/07/28 09:26:12;;;;;;;3.42;1.20;;;17.50;94.50;;;;;;5112953;28;20169;-70
2022/07/28 09:28:56;;;;;;;3.28;1.00;;;17.60;94.10;;;;;;5105093;28;20103;-68
2022/07/28 09:31:24;;;;;;;2.33;0.77;;;17.70;92.50;;;;;;5101531;28;20786;-68
2022/07/28 09:34:03;;;;;;;3.63;0.90;;;17.70;92.40;;;;;;5107095;28;20127;-68
2022/07/28 09:36:40;;;;;;;1.98;0.80;;;17.80;91.90;;;;;;5105819;28;20043;-68
2022/07/28 09:39:07;;;;;;;1.30;0.80;;;17.80;91.10;;;;;;5100880;28;20032;-67
2022/07/28 09:41:47;;;;;;;2.55;0.90;;;17.80;91.40;;;;;;5101510;28;20047;-68
2022/07/28 09:44:20;;;;;;;2.63;1.08;;;17.90;90.70;;;;;;5092285;28;20047;-68
2022/07/28 09:46:46;;;;;;;2.55;0.80;;;18.10;91.20;;;;;;5092238;28;20040;-68
2022/07/28 09:49:12;;;;;;;1.77;0.90;;;18.20;90.90;;;;;;5091787;28;20040;-68
2022/07/28 09:51:38;;;;;;;6.63;1.40;;;18.30;90.30;;;;;;5091877;28;20506;-68
2022/07/28 09:54:09;;;;;;;3.00;1.40;;;18.40;89.90;;;;;;5092272;28;20093;-68
2022/07/28 09:56:39;;;;;;;4.30;1.40;;;18.40;88.40;;;;;;5092275;28;20067;-68
2022/07/28 09:59:06;;;;;;;3.95;1.73;;;18.40;88.20;;;;;;5091923;28;20036;-68
2022/07/28 10:01:48;;;;;;;2.55;1.52;;;18.50;88.20;;;;;;5091712;28;20535;-68
2022/07/28 10:04:13;;;;;;;4.00;1.58;;;18.50;86.80;;;;;;5091900;28;20051;-68
2022/07/28 10:06:39;;;;;;;5.03;1.52;;;18.50;85.90;;;;;;5090598;28;20040;-68
2022/07/28 10:09:06;;;;;;;5.40;1.55;;;18.50;85.10;;;;;;5091846;28;20046;-68
2022/07/28 10:11:32;;;;;;;2.10;1.33;;;18.60;85.20;;;;;;5091659;28;20048;-68
2022/07/28 10:14:02;;;;;;;2.65;1.23;;;18.60;84.80;;;;;;5091576;28;20123;-68
2022/07/28 10:16:30;;;;;;;2.25;1.15;;;18.70;84.90;;;;;;5091641;28;20039;-68
2022/07/28 10:18:58;;;;;;;3.55;1.05;;;18.80;83.70;;;;;;5096036;28;20144;-68
2022/07/28 10:21:26;;;;;;;2.67;0.98;;;18.80;83.50;;;;;;5100195;28;20076;-68
2022/07/28 10:23:57;;;;;;;1.77;1.00;;;18.80;80.80;;;;;;5099328;28;20062;-69
2022/07/28 10:26:31;;;;;;;2.33;1.02;;;18.90;79.30;;;;;;5091711;28;20067;-69
2022/07/28 10:29:01;;;;;;;2.95;1.05;;;18.90;78.40;;;;;;5091487;28;20517;-69
2022/07/28 10:31:48;;;;;;;3.78;0.88;;;18.90;78.10;;;;;;5091208;28;20490;-68
2022/07/28 10:34:21;;;;;;;2.70;1.00;;;19.00;76.80;;;;;;5091654;28;20032;-68
2022/07/28 10:36:49;;;;;;;2.28;0.90;;;19.00;75.70;;;;;;5091667;28;20033;-69
2022/07/28 10:39:18;;;;;;;2.60;0.95;;;19.00;75.20;;;;;;5091124;28;20040;-67
2022/07/28 10:41:44;;;;;;;4.38;0.70;;;19.10;74.50;;;;;;5091363;28;20401;-67
2022/07/28 10:44:16;;;;;;;2.63;0.75;;;19.10;73.90;;;;;;5091821;28;20032;-68
2022/07/28 10:46:42;;;;;;;3.42;0.70;;;19.10;73.20;;;;;;5091700;28;20044;-67
2022/07/28 10:49:09;;;;;;;1.48;0.70;;;19.10;73.50;;;;;;5094042;28;20191;-69
2022/07/28 10:51:36;;;;;;;3.03;0.65;;;19.20;73.30;;;;;;5110498;28;20048;-68
2022/07/28 10:54:12;;;;;;;2.47;0.70;;;19.30;73.60;;;;;;5111762;28;20118;-70
2022/07/28 10:56:57;;;;;;;2.25;0.90;;;19.20;71.90;;;;;;5110727;28;20039;-69
2022/07/28 11:00:00;;;;;;;2.35;0.73;;;19.20;72.40;;;;;;5111560;28;20043;-69
2022/07/28 11:02:44;;;;;;;1.30;0.60;;;19.20;71.60;;;;;;5111635;28;20046;-69
2022/07/28 11:05:31;;;;;;;3.70;0.80;;;19.30;71.20;;;;;;5110556;28;20047;-69
2022/07/28 11:08:00;;;;;;;1.60;0.60;;;19.40;70.90;;;;;;5111702;28;20043;-69
2022/07/28 11:10:27;;;;;;;5.03;0.93;;;19.30;70.30;;;;;;5111262;28;20487;-69
2022/07/28 11:12:56;;;;;;;2.40;0.93;;;19.50;71.70;;;;;;5111350;28;20382;-68
2022/07/28 11:15:26;;;;;;;5.18;0.85;;;19.60;72.20;;;;;;5111779;28;20046;-69
2022/07/28 11:18:06;;;;;;;2.88;0.80;;;19.70;71.60;;;;;;5111468;28;20569;-69
2022/07/28 11:20:56;;;;;;;3.35;0.90;;;19.70;70.50;;;;;;5111327;28;20119;-69
2022/07/28 11:23:42;;;;;;;1.73;0.75;;;19.70;70.80;;;;;;5111463;28;20065;-69
2022/07/28 11:26:19;;;;;;;4.00;1.33;;;19.50;74.30;;;;;;5114476;28;20036;-70
2022/07/28 11:29:03;;;;;;;3.00;1.02;;;19.30;76.00;;;;;;5115112;28;20497;-69
2022/07/28 11:31:43;;;;;;;2.90;1.00;;;19.20;77.50;;;;;;5114881;28;20035;-69
2022/07/28 11:34:17;;;;;;;3.72;1.27;;;19.20;79.30;;;;;;5115501;28;20354;-69
2022/07/28 11:37:06;;;;;;;1.75;0.68;;;19.20;80.00;;;;;;5115518;28;20032;-69
2022/07/28 11:39:41;;;;;;;3.17;0.80;;;19.10;80.50;;;;;;5114913;28;20044;-69
2022/07/28 11:42:31;;;;;;;3.28;0.82;;;19.20;80.90;;;;;;5115037;28;20043;-69
2022/07/28 11:45:16;;;;;;;2.42;0.70;;;19.40;82.40;;;;;;5115229;28;20043;-69
2022/07/28 11:47:42;;;;;;;3.03;0.88;;;19.30;80.60;;;;;;5114873;28;20052;-69
2022/07/28 11:50:15;;;;;;;3.30;0.80;;;19.30;80.60;;;;;;5114609;28;20045;-69
2022/07/28 11:52:55;;;;;;;3.22;0.80;;;19.30;80.70;;;;;;5114950;28;20039;-69
2022/07/28 11:55:21;;;;;;;2.60;0.93;;;19.30;83.00;;;;;;5113408;28;20040;-69
2022/07/28 11:57:47;;;;;;;2.83;0.90;;;19.10;80.70;;;;;;5114620;28;20133;-67
2022/07/28 12:00:20;;;;;;;2.58;1.33;;;19.10;79.90;;;;;;5087791;28;20405;-68
2022/07/28 12:02:46;;;;;;;;;;;19.20;80.10;;;;;;5099588;28;20164;-68
2022/07/28 12:05:13;;;;;;;2.30;0.85;;;19.10;77.80;;;;;;5097350;28;20320;-68
2022/07/28 12:07:45;;;;;;;2.50;1.33;;;19.30;78.70;;;;;;5099247;28;20043;-68
2022/07/28 12:10:25;;;;;;;3.05;1.00;;;19.40;77.50;;;;;;5102940;28;20047;-68
2022/07/28 12:12:53;;;;;;;3.35;1.05;;;19.40;75.40;;;;;;5099343;28;20040;-68
2022/07/28 12:15:19;;;;;;;3.78;1.40;;;19.40;75.10;;;;;;5093825;28;20036;-67
2022/07/28 12:17:46;;;;;;;1.83;1.10;;;19.50;74.80;;;;;;5094087;28;20040;-68
2022/07/28 12:20:17;;;;;;;1.95;0.90;;;19.50;74.80;;;;;;5093641;28;20047;-67
2022/07/28 12:22:54;;;;;;;6.18;1.05;;;19.60;74.40;;;;;;5093967;28;20040;-68
2022/07/28 12:25:20;;;;;;;1.30;0.80;;;19.70;75.00;;;;;;5092605;28;20040;-70
2022/07/28 12:27:45;;;;;;;3.35;0.93;;;19.60;74.20;;;;;;5093528;28;20039;-70
2022/07/28 12:30:11;;;;;;;2.08;1.10;;;19.60;72.40;;;;;;5075563;28;20040;-71
2022/07/28 12:32:37;;;;;;;4.78;1.10;;;19.70;72.30;;;;;;5093853;28;20119;-70
2022/07/28 12:35:03;;;;;;;2.28;1.10;;;19.70;71.10;;;;;;5093736;28;20444;-70
2022/07/28 12:37:28;;;;;;;1.92;0.80;;;19.80;70.90;;;;;;5093625;28;20108;-71
2022/07/28 12:39:54;;;;;;;6.07;0.77;;;19.80;70.00;;;;;;5093162;28;20493;-70
2022/07/28 12:42:20;;;;;;;2.47;0.60;;;19.90;68.90;;;;;;5093383;28;20115;-71
2022/07/28 12:44:47;;;;;;;2.83;1.35;;;19.80;68.30;;;;;;5093432;28;20039;-70
2022/07/28 12:47:16;;;;;;;2.28;0.88;;;19.70;69.10;;;;;;5093566;28;20047;-70
2022/07/28 12:49:43;;;;;;;2.28;0.95;;;19.90;67.30;;;;;;5074740;28;20378;-71
2022/07/28 12:52:22;;;;;;;3.30;0.70;;;20.00;67.20;;;;;;5093270;28;20036;-70
2022/07/28 12:54:52;;;;;;;3.25;0.77;;;20.10;66.80;;;;;;5091966;28;20039;-71
2022/07/28 12:57:46;;;;;;;4.25;0.90;;;20.00;66.10;;;;;;5093455;28;20115;-70
2022/07/28 13:00:13;;;;;;;2.55;0.50;;;20.00;64.80;;;;;;5091612;28;20073;-70